sensor_id;sensor_type;location;lat;lon;timestamp;pressure;altitude;pressure_sealevel;temperature;humidity
28628;BME280;15815;46.760;19.604;2023-02-28T00:01:45;101424.22;;;0.81;64.83
28628;BME280;15815;46.760;19.604;2023-02-28T00:04:11;101408.69;;;0.72;65.08
28628;BME280;15815;46.760;19.604;2023-02-28T00:06:38;101409.50;;;0.72;64.40
28628;BME280;15815;46.760;19.604;2023-02-28T00:09:03;101411.13;;;0.73;64.88
28628;BME280;15815;46.760;19.604;2023-02-28T00:11:30;101430.56;;;0.82;64.61
28628;BME280;15815;46.760;19.604;2023-02-28T00:13:55;101392.44;;;0.56;65.07
28628;BME280;15815;46.760;19.604;2023-02-28T00:16:23;101434.78;;;0.79;65.53
28628;BME280;15815;46.760;19.604;2023-02-28T00:18:49;101411.88;;;0.65;65.42
28628;BME280;15815;46.760;19.604;2023-02-28T00:21:16;101430.63;;;0.68;65.46
28628;BME280;15815;46.760;19.604;2023-02-28T00:23:42;101401.38;;;0.40;65.87
28628;BME280;15815;46.760;19.604;2023-02-28T00:26:08;101412.41;;;0.53;65.84
28628;BME280;15815;46.760;19.604;2023-02-28T00:28:36;101427.97;;;0.63;66.06
28628;BME280;15815;46.760;19.604;2023-02-28T00:31:02;101439.44;;;0.70;65.70
28628;BME280;15815;46.760;19.604;2023-02-28T00:33:28;101436.03;;;0.73;65.62
28628;BME280;15815;46.760;19.604;2023-02-28T00:36:07;101431.56;;;0.64;65.48
28628;BME280;15815;46.760;19.604;2023-02-28T00:38:33;101399.38;;;0.54;65.64
28628;BME280;15815;46.760;19.604;2023-02-28T00:40:59;101421.44;;;0.59;65.33
28628;BME280;15815;46.760;19.604;2023-02-28T00:43:24;101410.16;;;0.55;65.24
28628;BME280;15815;46.760;19.604;2023-02-28T00:45:50;101413.22;;;0.54;64.99
28628;BME280;15815;46.760;19.604;2023-02-28T00:48:15;101424.28;;;0.54;64.83
28628;BME280;15815;46.760;19.604;2023-02-28T00:50:41;101412.94;;;0.55;65.02
28628;BME280;15815;46.760;19.604;2023-02-28T00:53:07;101431.25;;;0.65;64.67
28628;BME280;15815;46.760;19.604;2023-02-28T00:55:32;101397.47;;;0.41;64.84
28628;BME280;15815;46.760;19.604;2023-02-28T00:58:00;101419.28;;;0.56;64.51
28628;BME280;15815;46.760;19.604;2023-02-28T01:00:25;101415.06;;;0.58;64.76
28628;BME280;15815;46.760;19.604;2023-02-28T01:02:51;101397.34;;;0.46;64.51
28628;BME280;15815;46.760;19.604;2023-02-28T01:05:16;101396.97;;;0.39;64.80
28628;BME280;15815;46.760;19.604;2023-02-28T01:07:42;101397.09;;;0.34;64.98
28628;BME280;15815;46.760;19.604;2023-02-28T01:10:08;101417.94;;;0.53;64.54
28628;BME280;15815;46.760;19.604;2023-02-28T01:12:34;101424.00;;;0.55;65.23
28628;BME280;15815;46.760;19.604;2023-02-28T01:15:00;101397.47;;;0.41;64.82
28628;BME280;15815;46.760;19.604;2023-02-28T01:17:25;101410.75;;;0.52;65.08
28628;BME280;15815;46.760;19.604;2023-02-28T01:19:53;101424.19;;;0.59;65.08
28628;BME280;15815;46.760;19.604;2023-02-28T01:22:21;101443.72;;;0.76;65.06
28628;BME280;15815;46.760;19.604;2023-02-28T01:24:47;101410.75;;;0.52;65.64
28628;BME280;15815;46.760;19.604;2023-02-28T01:27:13;101396.34;;;0.42;65.28
28628;BME280;15815;46.760;19.604;2023-02-28T01:29:39;101413.94;;;0.59;65.14
28628;BME280;15815;46.760;19.604;2023-02-28T01:32:05;101402.25;;;0.49;65.41
28628;BME280;15815;46.760;19.604;2023-02-28T01:34:30;101404.91;;;0.54;65.46
28628;BME280;15815;46.760;19.604;2023-02-28T01:36:57;101464.63;;;0.82;64.89
28628;BME280;15815;46.760;19.604;2023-02-28T01:39:23;101414.66;;;0.51;65.20
28628;BME280;15815;46.760;19.604;2023-02-28T01:41:48;101443.13;;;0.66;65.22
28628;BME280;15815;46.760;19.604;2023-02-28T01:47:17;101415.69;;;0.55;65.76
28628;BME280;15815;46.760;19.604;2023-02-28T01:49:47;101400.63;;;0.48;66.22
28628;BME280;15815;46.760;19.604;2023-02-28T01:52:15;101430.84;;;0.58;66.71
28628;BME280;15815;46.760;19.604;2023-02-28T01:54:41;101420.00;;;0.48;67.37
28628;BME280;15815;46.760;19.604;2023-02-28T01:57:16;101414.56;;;0.43;67.43
28628;BME280;15815;46.760;19.604;2023-02-28T01:59:53;101403.13;;;0.36;68.15
28628;BME280;15815;46.760;19.604;2023-02-28T02:02:22;101435.34;;;0.54;68.75
28628;BME280;15815;46.760;19.604;2023-02-28T02:05:00;101427.78;;;0.46;69.55
28628;BME280;15815;46.760;19.604;2023-02-28T02:07:42;101394.81;;;0.22;69.55
28628;BME280;15815;46.760;19.604;2023-02-28T02:10:15;101416.94;;;0.36;70.45
28628;BME280;15815;46.760;19.604;2023-02-28T02:24:29;101439.88;;;0.50;72.74
28628;BME280;15815;46.760;19.604;2023-02-28T02:35:26;101426.81;;;0.28;73.65
28628;BME280;15815;46.760;19.604;2023-02-28T02:38:08;101440.91;;;0.26;75.02
28628;BME280;15815;46.760;19.604;2023-02-28T02:40:42;101418.72;;;0.04;74.95
28628;BME280;15815;46.760;19.604;2023-02-28T02:43:25;101453.19;;;0.20;75.11
28628;BME280;15815;46.760;19.604;2023-02-28T02:46:01;101399.97;;;-0.13;75.96
28628;BME280;15815;46.760;19.604;2023-02-28T02:48:37;101421.47;;;0.04;76.10
28628;BME280;15815;46.760;19.604;2023-02-28T02:51:19;101408.03;;;-0.03;76.89
28628;BME280;15815;46.760;19.604;2023-02-28T02:54:22;101415.94;;;0.04;76.95
28628;BME280;15815;46.760;19.604;2023-02-28T02:56:50;101441.75;;;0.13;77.54
28628;BME280;15815;46.760;19.604;2023-02-28T02:59:21;101438.47;;;0.11;77.68
28628;BME280;15815;46.760;19.604;2023-02-28T03:01:51;101438.16;;;0.13;78.50
28628;BME280;15815;46.760;19.604;2023-02-28T03:04:22;101402.94;;;-0.09;78.04
28628;BME280;15815;46.760;19.604;2023-02-28T03:06:50;101393.22;;;-0.20;78.40
28628;BME280;15815;46.760;19.604;2023-02-28T03:09:16;101409.38;;;-0.14;78.36
28628;BME280;15815;46.760;19.604;2023-02-28T03:11:44;101418.50;;;0.01;78.11
28628;BME280;15815;46.760;19.604;2023-02-28T03:22:46;101400.16;;;-0.09;77.90
28628;BME280;15815;46.760;19.604;2023-02-28T03:25:28;101415.44;;;0.02;77.40
28628;BME280;15815;46.760;19.604;2023-02-28T03:28:00;101422.91;;;0.02;77.45
28628;BME280;15815;46.760;19.604;2023-02-28T03:30:36;101417.16;;;-0.02;77.60
28628;BME280;15815;46.760;19.604;2023-02-28T03:33:17;101388.59;;;-0.11;77.22
28628;BME280;15815;46.760;19.604;2023-02-28T03:35:51;101407.97;;;0.03;76.89
28628;BME280;15815;46.760;19.604;2023-02-28T03:38:40;101398.09;;;-0.04;77.11
28628;BME280;15815;46.760;19.604;2023-02-28T03:43:45;101409.97;;;-0.03;76.88
28628;BME280;15815;46.760;19.604;2023-02-28T03:46:16;101378.78;;;-0.17;77.20
28628;BME280;15815;46.760;19.604;2023-02-28T03:48:47;101393.19;;;-0.07;76.56
28628;BME280;15815;46.760;19.604;2023-02-28T03:51:20;101407.97;;;0.03;76.77
28628;BME280;15815;46.760;19.604;2023-02-28T03:53:56;101389.63;;;-0.07;76.88
28628;BME280;15815;46.760;19.604;2023-02-28T03:56:52;101389.00;;;-0.04;76.66
28628;BME280;15815;46.760;19.604;2023-02-28T03:59:39;101366.09;;;-0.18;76.72
28628;BME280;15815;46.760;19.604;2023-02-28T04:02:07;101363.44;;;-0.23;75.96
28628;BME280;15815;46.760;19.604;2023-02-28T04:04:33;101352.56;;;-0.34;75.68
28628;BME280;15815;46.760;19.604;2023-02-28T04:07:06;101413.19;;;0.04;76.48
28628;BME280;15815;46.760;19.604;2023-02-28T04:09:32;101404.88;;;0.04;75.65
28628;BME280;15815;46.760;19.604;2023-02-28T04:12:00;101370.69;;;-0.14;75.86
28628;BME280;15815;46.760;19.604;2023-02-28T04:14:26;101359.03;;;-0.24;75.56
28628;BME280;15815;46.760;19.604;2023-02-28T04:16:51;101408.88;;;0.12;75.43
28628;BME280;15815;46.760;19.604;2023-02-28T04:19:18;101398.03;;;0.02;75.70
28628;BME280;15815;46.760;19.604;2023-02-28T04:21:46;101396.59;;;0.04;75.37
28628;BME280;15815;46.760;19.604;2023-02-28T04:24:18;101372.31;;;-0.13;75.27
28628;BME280;15815;46.760;19.604;2023-02-28T04:26:46;101410.63;;;0.08;74.71
28628;BME280;15815;46.760;19.604;2023-02-28T04:29:14;101386.22;;;-0.04;75.32
28628;BME280;15815;46.760;19.604;2023-02-28T04:31:43;101373.13;;;-0.12;75.28
28628;BME280;15815;46.760;19.604;2023-02-28T04:34:09;101369.66;;;-0.18;75.51
28628;BME280;15815;46.760;19.604;2023-02-28T04:36:36;101347.53;;;-0.32;75.36
28628;BME280;15815;46.760;19.604;2023-02-28T04:39:01;101361.28;;;-0.26;75.52
28628;BME280;15815;46.760;19.604;2023-02-28T04:41:28;101392.69;;;-0.09;76.12
28628;BME280;15815;46.760;19.604;2023-02-28T04:43:54;101375.41;;;-0.14;75.70
28628;BME280;15815;46.760;19.604;2023-02-28T04:46:20;101394.00;;;-0.06;75.69
28628;BME280;15815;46.760;19.604;2023-02-28T04:48:45;101369.56;;;-0.13;75.64
28628;BME280;15815;46.760;19.604;2023-02-28T04:51:13;101397.50;;;-0.01;76.12
28628;BME280;15815;46.760;19.604;2023-02-28T04:53:40;101388.69;;;-0.03;75.65
28628;BME280;15815;46.760;19.604;2023-02-28T04:56:07;101371.00;;;-0.15;75.90
28628;BME280;15815;46.760;19.604;2023-02-28T04:58:33;101409.69;;;0.12;75.96
28628;BME280;15815;46.760;19.604;2023-02-28T05:01:04;101409.06;;;0.15;75.67
28628;BME280;15815;46.760;19.604;2023-02-28T05:03:32;101364.34;;;-0.14;75.73
28628;BME280;15815;46.760;19.604;2023-02-28T05:05:57;101390.06;;;0.00;76.05
28628;BME280;15815;46.760;19.604;2023-02-28T05:08:23;101411.53;;;0.03;76.87
28628;BME280;15815;46.760;19.604;2023-02-28T05:10:50;101389.09;;;-0.09;76.74
28628;BME280;15815;46.760;19.604;2023-02-28T05:13:15;101383.56;;;-0.09;76.87
28628;BME280;15815;46.760;19.604;2023-02-28T05:15:42;101376.41;;;-0.10;76.97
28628;BME280;15815;46.760;19.604;2023-02-28T05:18:08;101399.38;;;0.04;77.19
28628;BME280;15815;46.760;19.604;2023-02-28T05:20:33;101422.28;;;0.18;76.92
28628;BME280;15815;46.760;19.604;2023-02-28T05:23:00;101403.16;;;0.08;77.07
28628;BME280;15815;46.760;19.604;2023-02-28T05:25:26;101391.38;;;0.03;77.13
28628;BME280;15815;46.760;19.604;2023-02-28T05:27:51;101416.25;;;0.16;77.01
28628;BME280;15815;46.760;19.604;2023-02-28T05:30:17;101396.09;;;0.02;77.51
28628;BME280;15815;46.760;19.604;2023-02-28T05:32:43;101391.75;;;-0.04;77.25
28628;BME280;15815;46.760;19.604;2023-02-28T05:35:11;101399.88;;;0.06;77.60
28628;BME280;15815;46.760;19.604;2023-02-28T05:37:37;101373.34;;;-0.09;77.59
28628;BME280;15815;46.760;19.604;2023-02-28T05:40:04;101420.03;;;0.20;77.38
28628;BME280;15815;46.760;19.604;2023-02-28T05:42:31;101390.88;;;0.01;77.62
28628;BME280;15815;46.760;19.604;2023-02-28T05:44:57;101382.66;;;-0.05;77.43
28628;BME280;15815;46.760;19.604;2023-02-28T05:47:22;101439.19;;;0.30;77.65
28628;BME280;15815;46.760;19.604;2023-02-28T05:49:49;101417.47;;;0.10;77.29
28628;BME280;15815;46.760;19.604;2023-02-28T05:54:43;101384.59;;;-0.05;77.30
28628;BME280;15815;46.760;19.604;2023-02-28T05:57:09;101433.84;;;0.20;78.01
28628;BME280;15815;46.760;19.604;2023-02-28T05:59:34;101431.69;;;0.17;77.67
28628;BME280;15815;46.760;19.604;2023-02-28T06:02:03;101418.50;;;0.14;77.58
28628;BME280;15815;46.760;19.604;2023-02-28T06:04:28;101427.81;;;0.18;77.74
28628;BME280;15815;46.760;19.604;2023-02-28T06:06:54;101406.81;;;0.17;77.57
28628;BME280;15815;46.760;19.604;2023-02-28T06:09:19;101414.50;;;0.20;77.42
28628;BME280;15815;46.760;19.604;2023-02-28T06:11:59;101438.06;;;0.32;77.51
28628;BME280;15815;46.760;19.604;2023-02-28T06:14:25;101457.50;;;0.40;77.59
28628;BME280;15815;46.760;19.604;2023-02-28T06:16:51;101404.28;;;0.07;77.11
28628;BME280;15815;46.760;19.604;2023-02-28T06:19:17;101439.38;;;0.34;76.77
28628;BME280;15815;46.760;19.604;2023-02-28T06:21:48;101443.88;;;0.44;76.75
28628;BME280;15815;46.760;19.604;2023-02-28T06:24:14;101421.84;;;0.25;76.28
28628;BME280;15815;46.760;19.604;2023-02-28T06:26:40;101451.03;;;0.45;76.00
28628;BME280;15815;46.760;19.604;2023-02-28T06:29:10;101442.03;;;0.39;75.66
28628;BME280;15815;46.760;19.604;2023-02-28T06:31:36;101458.03;;;0.56;75.60
28628;BME280;15815;46.760;19.604;2023-02-28T06:34:02;101454.00;;;0.48;75.05
28628;BME280;15815;46.760;19.604;2023-02-28T06:36:28;101430.16;;;0.39;75.17
28628;BME280;15815;46.760;19.604;2023-02-28T06:38:54;101466.50;;;0.59;74.62
28628;BME280;15815;46.760;19.604;2023-02-28T06:41:22;101473.56;;;0.66;74.89
28628;BME280;15815;46.760;19.604;2023-02-28T06:43:52;101476.53;;;0.69;74.25
28628;BME280;15815;46.760;19.604;2023-02-28T06:46:18;101452.25;;;0.52;73.97
28628;BME280;15815;46.760;19.604;2023-02-28T06:48:44;101481.44;;;0.72;73.48
28628;BME280;15815;46.760;19.604;2023-02-28T06:51:17;101459.75;;;0.66;73.43
28628;BME280;15815;46.760;19.604;2023-02-28T06:53:42;101474.16;;;0.76;72.71
28628;BME280;15815;46.760;19.604;2023-02-28T06:56:10;101473.84;;;0.78;72.13
28628;BME280;15815;46.760;19.604;2023-02-28T06:58:37;101452.13;;;0.71;72.51
28628;BME280;15815;46.760;19.604;2023-02-28T07:01:06;101454.09;;;0.71;72.17
28628;BME280;15815;46.760;19.604;2023-02-28T07:03:32;101493.59;;;0.99;71.72
28628;BME280;15815;46.760;19.604;2023-02-28T07:05:57;101467.28;;;0.87;71.28
28628;BME280;15815;46.760;19.604;2023-02-28T07:08:25;101504.22;;;1.05;71.29
28628;BME280;15815;46.760;19.604;2023-02-28T07:10:56;101495.63;;;1.07;70.83
28628;BME280;15815;46.760;19.604;2023-02-28T07:13:22;101459.88;;;0.97;71.08
28628;BME280;15815;46.760;19.604;2023-02-28T07:15:56;101472.34;;;1.08;70.68
28628;BME280;15815;46.760;19.604;2023-02-28T07:18:22;101455.97;;;0.98;70.49
28628;BME280;15815;46.760;19.604;2023-02-28T07:20:48;101459.44;;;1.03;71.08
28628;BME280;15815;46.760;19.604;2023-02-28T07:23:13;101481.34;;;1.13;70.10
28628;BME280;15815;46.760;19.604;2023-02-28T07:25:39;101489.09;;;1.25;70.19
28628;BME280;15815;46.760;19.604;2023-02-28T07:28:04;101445.19;;;1.10;70.17
28628;BME280;15815;46.760;19.604;2023-02-28T07:30:30;101480.34;;;1.32;69.16
28628;BME280;15815;46.760;19.604;2023-02-28T07:32:56;101484.13;;;1.36;69.54
28628;BME280;15815;46.760;19.604;2023-02-28T07:35:22;101478.41;;;1.32;69.01
28628;BME280;15815;46.760;19.604;2023-02-28T07:37:48;101502.22;;;1.55;69.35
28628;BME280;15815;46.760;19.604;2023-02-28T07:40:15;101500.44;;;1.60;68.58
28628;BME280;15815;46.760;19.604;2023-02-28T07:42:41;101503.28;;;1.68;68.76
28628;BME280;15815;46.760;19.604;2023-02-28T07:45:10;101485.44;;;1.61;68.54
28628;BME280;15815;46.760;19.604;2023-02-28T07:47:37;101473.38;;;1.57;68.66
28628;BME280;15815;46.760;19.604;2023-02-28T07:50:03;101478.91;;;1.57;68.06
28628;BME280;15815;46.760;19.604;2023-02-28T07:52:29;101471.28;;;1.62;68.76
28628;BME280;15815;46.760;19.604;2023-02-28T07:54:55;101490.16;;;1.82;68.23
28628;BME280;15815;46.760;19.604;2023-02-28T07:57:24;101493.19;;;1.95;67.68
28628;BME280;15815;46.760;19.604;2023-02-28T07:59:49;101465.66;;;1.76;67.85
28628;BME280;15815;46.760;19.604;2023-02-28T08:02:18;101487.75;;;1.90;67.40
28628;BME280;15815;46.760;19.604;2023-02-28T08:04:44;101485.47;;;1.92;67.42
28628;BME280;15815;46.760;19.604;2023-02-28T08:07:12;101468.66;;;1.88;68.04
28628;BME280;15815;46.760;19.604;2023-02-28T08:09:45;101492.41;;;2.03;67.42
28628;BME280;15815;46.760;19.604;2023-02-28T08:12:11;101482.94;;;2.04;67.63
28628;BME280;15815;46.760;19.604;2023-02-28T08:14:37;101454.78;;;1.88;67.44
28628;BME280;15815;46.760;19.604;2023-02-28T08:17:07;101472.63;;;1.96;67.26
28628;BME280;15815;46.760;19.604;2023-02-28T08:19:33;101451.38;;;1.91;67.58
28628;BME280;15815;46.760;19.604;2023-02-28T08:22:01;101467.47;;;2.11;67.18
28628;BME280;15815;46.760;19.604;2023-02-28T08:24:27;101483.22;;;2.25;66.86
28628;BME280;15815;46.760;19.604;2023-02-28T08:26:52;101500.28;;;2.49;68.48
28628;BME280;15815;46.760;19.604;2023-02-28T08:29:18;101473.97;;;2.46;68.35
28628;BME280;15815;46.760;19.604;2023-02-28T08:31:44;101499.19;;;2.67;67.21
28628;BME280;15815;46.760;19.604;2023-02-28T08:34:12;101500.81;;;2.68;66.27
28628;BME280;15815;46.760;19.604;2023-02-28T08:36:38;101460.13;;;2.55;67.45
28628;BME280;15815;46.760;19.604;2023-02-28T08:39:04;101460.13;;;2.55;66.42
28628;BME280;15815;46.760;19.604;2023-02-28T08:41:30;101493.78;;;2.71;66.53
28628;BME280;15815;46.760;19.604;2023-02-28T08:43:56;101464.69;;;2.51;66.48
28628;BME280;15815;46.760;19.604;2023-02-28T08:46:22;101482.53;;;2.67;66.54
28628;BME280;15815;46.760;19.604;2023-02-28T08:48:54;101469.81;;;2.75;66.91
28628;BME280;15815;46.760;19.604;2023-02-28T08:51:20;101466.34;;;2.69;66.76
28628;BME280;15815;46.760;19.604;2023-02-28T08:53:48;101463.25;;;2.71;66.19
28628;BME280;15815;46.760;19.604;2023-02-28T08:56:15;101485.69;;;2.92;66.81
28628;BME280;15815;46.760;19.604;2023-02-28T08:58:41;101455.63;;;2.76;66.50
28628;BME280;15815;46.760;19.604;2023-02-28T09:01:16;101463.47;;;2.92;67.33
28628;BME280;15815;46.760;19.604;2023-02-28T09:03:43;101453.00;;;2.89;66.24
28628;BME280;15815;46.760;19.604;2023-02-28T09:06:09;101485.53;;;3.05;66.19
28628;BME280;15815;46.760;19.604;2023-02-28T09:08:35;101497.16;;;3.16;66.01
28628;BME280;15815;46.760;19.604;2023-02-28T09:11:01;101473.13;;;3.03;66.35
28628;BME280;15815;46.760;19.604;2023-02-28T09:13:27;101470.50;;;3.06;66.31
28628;BME280;15815;46.760;19.604;2023-02-28T09:15:53;101510.53;;;3.49;66.19
28628;BME280;15815;46.760;19.604;2023-02-28T09:18:19;101501.06;;;3.50;66.04
28628;BME280;15815;46.760;19.604;2023-02-28T09:20:45;101491.25;;;3.44;65.90
28628;BME280;15815;46.760;19.604;2023-02-28T09:23:12;101476.88;;;3.24;65.49
28628;BME280;15815;46.760;19.604;2023-02-28T09:25:45;101496.47;;;3.54;65.52
28628;BME280;15815;46.760;19.604;2023-02-28T09:28:10;101498.63;;;3.48;64.91
28628;BME280;15815;46.760;19.604;2023-02-28T09:30:36;101495.19;;;3.42;64.48
28628;BME280;15815;46.760;19.604;2023-02-28T09:33:02;101504.19;;;3.39;64.55
28628;BME280;15815;46.760;19.604;2023-02-28T09:35:30;101488.00;;;3.24;64.71
28628;BME280;15815;46.760;19.604;2023-02-28T09:37:56;101469.03;;;3.09;65.16
28628;BME280;15815;46.760;19.604;2023-02-28T09:40:24;101491.59;;;3.25;65.50
28628;BME280;15815;46.760;19.604;2023-02-28T09:42:55;101497.81;;;3.39;65.44
28628;BME280;15815;46.760;19.604;2023-02-28T09:45:39;101506.31;;;3.60;65.69
28628;BME280;15815;46.760;19.604;2023-02-28T09:48:23;101471.97;;;3.38;65.94
28628;BME280;15815;46.760;19.604;2023-02-28T09:50:53;101468.38;;;3.47;66.59
28628;BME280;15815;46.760;19.604;2023-02-28T09:55:55;101492.06;;;3.61;66.54
28628;BME280;15815;46.760;19.604;2023-02-28T09:58:47;101495.16;;;3.77;65.71
28628;BME280;15815;46.760;19.604;2023-02-28T10:01:39;101499.44;;;3.66;65.79
28628;BME280;15815;46.760;19.604;2023-02-28T10:08:03;101474.22;;;3.71;65.85
28628;BME280;15815;46.760;19.604;2023-02-28T10:10:45;101497.53;;;4.04;65.69
28628;BME280;15815;46.760;19.604;2023-02-28T10:13:34;101483.69;;;3.87;64.92
28628;BME280;15815;46.760;19.604;2023-02-28T10:16:14;101478.13;;;3.87;65.20
28628;BME280;15815;46.760;19.604;2023-02-28T10:18:52;101509.16;;;4.07;65.17
28628;BME280;15815;46.760;19.604;2023-02-28T10:21:28;101491.03;;;3.92;65.32
28628;BME280;15815;46.760;19.604;2023-02-28T10:24:13;101496.22;;;4.02;64.74
28628;BME280;15815;46.760;19.604;2023-02-28T10:26:45;101496.56;;;4.00;65.24
28628;BME280;15815;46.760;19.604;2023-02-28T10:29:13;101494.56;;;4.10;65.53
28628;BME280;15815;46.760;19.604;2023-02-28T10:31:40;101478.38;;;4.12;64.99
28628;BME280;15815;46.760;19.604;2023-02-28T10:34:07;101488.66;;;4.20;65.28
28628;BME280;15815;46.760;19.604;2023-02-28T10:36:33;101505.13;;;4.33;64.33
28628;BME280;15815;46.760;19.604;2023-02-28T10:38:58;101474.88;;;4.23;63.99
28628;BME280;15815;46.760;19.604;2023-02-28T10:41:32;101504.00;;;4.26;64.55
28628;BME280;15815;46.760;19.604;2023-02-28T10:44:19;101482.41;;;4.23;64.76
28628;BME280;15815;46.760;19.604;2023-02-28T10:46:45;101497.75;;;4.38;65.27
28628;BME280;15815;46.760;19.604;2023-02-28T10:49:21;101481.41;;;4.27;65.33
28628;BME280;15815;46.760;19.604;2023-02-28T10:51:52;101502.75;;;4.53;65.22
28628;BME280;15815;46.760;19.604;2023-02-28T10:54:29;101476.78;;;4.40;64.26
28628;BME280;15815;46.760;19.604;2023-02-28T10:57:18;101489.50;;;4.50;64.29
28628;BME280;15815;46.760;19.604;2023-02-28T10:59:45;101467.28;;;4.41;65.32
28628;BME280;15815;46.760;19.604;2023-02-28T11:02:32;101465.94;;;4.47;63.79
28628;BME280;15815;46.760;19.604;2023-02-28T11:04:58;101481.09;;;4.58;64.70
28628;BME280;15815;46.760;19.604;2023-02-28T11:07:26;101486.47;;;4.63;65.08
28628;BME280;15815;46.760;19.604;2023-02-28T11:09:54;101468.88;;;4.51;65.06
28628;BME280;15815;46.760;19.604;2023-02-28T11:14:58;101470.25;;;4.65;65.85
28628;BME280;15815;46.760;19.604;2023-02-28T11:17:30;101466.97;;;4.63;64.94
28628;BME280;15815;46.760;19.604;2023-02-28T11:20:05;101436.22;;;4.60;64.46
28628;BME280;15815;46.760;19.604;2023-02-28T11:22:36;101468.94;;;4.72;64.17
28628;BME280;15815;46.760;19.604;2023-02-28T11:25:07;101429.88;;;4.51;65.11
28628;BME280;15815;46.760;19.604;2023-02-28T11:27:49;101456.63;;;4.73;64.62
28628;BME280;15815;46.760;19.604;2023-02-28T11:32:54;101424.78;;;4.53;64.61
28628;BME280;15815;46.760;19.604;2023-02-28T11:35:28;101461.94;;;4.86;64.90
28628;BME280;15815;46.760;19.604;2023-02-28T11:37:57;101456.69;;;4.85;64.68
28628;BME280;15815;46.760;19.604;2023-02-28T11:51:21;101462.53;;;4.92;63.87
28628;BME280;15815;46.760;19.604;2023-02-28T11:56:33;101460.25;;;4.94;64.26
28628;BME280;15815;46.760;19.604;2023-02-28T11:59:28;101424.56;;;4.67;63.84
28628;BME280;15815;46.760;19.604;2023-02-28T12:02:26;101451.94;;;4.85;63.68
28628;BME280;15815;46.760;19.604;2023-02-28T12:05:05;101445.56;;;4.85;64.42
28628;BME280;15815;46.760;19.604;2023-02-28T12:10:59;101414.50;;;4.74;64.14
28628;BME280;15815;46.760;19.604;2023-02-28T12:19:06;101407.56;;;4.59;64.78
28628;BME280;15815;46.760;19.604;2023-02-28T12:26:58;101403.13;;;4.58;65.16
28628;BME280;15815;46.760;19.604;2023-02-28T12:29:32;101416.81;;;4.72;64.72
28628;BME280;15815;46.760;19.604;2023-02-28T12:32:18;101427.63;;;4.94;65.19
28628;BME280;15815;46.760;19.604;2023-02-28T12:34:48;101374.56;;;4.70;64.58
28628;BME280;15815;46.760;19.604;2023-02-28T12:37:19;101417.81;;;4.88;65.08
28628;BME280;15815;46.760;19.604;2023-02-28T12:39:51;101411.38;;;4.76;64.58
28628;BME280;15815;46.760;19.604;2023-02-28T12:42:40;101424.91;;;4.86;63.92
28628;BME280;15815;46.760;19.604;2023-02-28T12:45:13;101376.06;;;4.68;64.94
28628;BME280;15815;46.760;19.604;2023-02-28T12:47:46;101397.31;;;4.72;64.60
28628;BME280;15815;46.760;19.604;2023-02-28T12:50:14;101428.97;;;4.88;65.26
28628;BME280;15815;46.760;19.604;2023-02-28T13:01:30;101419.81;;;4.88;65.40
28628;BME280;15815;46.760;19.604;2023-02-28T13:04:29;101417.34;;;4.86;66.52
28628;BME280;15815;46.760;19.604;2023-02-28T13:09:39;101403.63;;;4.81;67.51
28628;BME280;15815;46.760;19.604;2023-02-28T13:12:16;101365.09;;;4.62;67.35
28628;BME280;15815;46.760;19.604;2023-02-28T13:14:42;101379.31;;;4.70;67.66
28628;BME280;15815;46.760;19.604;2023-02-28T13:24:51;101405.34;;;4.74;69.65
28628;BME280;15815;46.760;19.604;2023-02-28T13:27:37;101401.41;;;4.75;69.05
28628;BME280;15815;46.760;19.604;2023-02-28T13:33:35;101409.28;;;4.73;69.42
28628;BME280;15815;46.760;19.604;2023-02-28T13:38:36;101364.69;;;4.52;69.59
28628;BME280;15815;46.760;19.604;2023-02-28T13:41:45;101396.97;;;4.74;69.33
28628;BME280;15815;46.760;19.604;2023-02-28T13:51:49;101359.66;;;4.45;69.19
28628;BME280;15815;46.760;19.604;2023-02-28T13:56:54;101388.06;;;4.59;70.06
28628;BME280;15815;46.760;19.604;2023-02-28T14:02:27;101370.41;;;4.55;69.55
28628;BME280;15815;46.760;19.604;2023-02-28T14:07:30;101354.66;;;4.39;70.44
28628;BME280;15815;46.760;19.604;2023-02-28T14:10:16;101379.91;;;4.54;70.35
28628;BME280;15815;46.760;19.604;2023-02-28T14:13:11;101389.00;;;4.63;71.05
28628;BME280;15815;46.760;19.604;2023-02-28T14:15:59;101371.75;;;4.49;72.06
28628;BME280;15815;46.760;19.604;2023-02-28T14:18:35;101352.59;;;4.48;72.47
28628;BME280;15815;46.760;19.604;2023-02-28T14:21:27;101367.00;;;4.50;72.92
28628;BME280;15815;46.760;19.604;2023-02-28T14:29:37;101390.03;;;4.59;72.94
28628;BME280;15815;46.760;19.604;2023-02-28T14:32:41;101385.81;;;4.53;73.00
28628;BME280;15815;46.760;19.604;2023-02-28T14:37:39;101386.97;;;4.52;72.82
28628;BME280;15815;46.760;19.604;2023-02-28T14:40:20;101373.38;;;4.50;73.22
28628;BME280;15815;46.760;19.604;2023-02-28T14:43:16;101362.81;;;4.35;73.28
28628;BME280;15815;46.760;19.604;2023-02-28T14:45:44;101392.13;;;4.41;74.32
28628;BME280;15815;46.760;19.604;2023-02-28T14:48:15;101372.25;;;4.22;75.14
28628;BME280;15815;46.760;19.604;2023-02-28T14:50:49;101360.84;;;4.15;75.83
28628;BME280;15815;46.760;19.604;2023-02-28T14:53:18;101346.81;;;4.02;76.64
28628;BME280;15815;46.760;19.604;2023-02-28T14:55:47;101359.03;;;4.10;77.27
28628;BME280;15815;46.760;19.604;2023-02-28T14:58:26;101382.56;;;4.21;77.77
28628;BME280;15815;46.760;19.604;2023-02-28T15:00:55;101379.16;;;4.16;78.05
28628;BME280;15815;46.760;19.604;2023-02-28T15:03:36;101345.09;;;3.89;79.01
28628;BME280;15815;46.760;19.604;2023-02-28T15:06:05;101360.72;;;4.02;79.45
28628;BME280;15815;46.760;19.604;2023-02-28T15:08:32;101373.28;;;4.09;79.31
28628;BME280;15815;46.760;19.604;2023-02-28T15:11:00;101382.28;;;4.14;79.77